sensor_id;sensor_type;location;lat;lon;timestamp;P1;durP1;ratioP1;P2;durP2;ratioP2
58752;SDS011;44525;46.052;13.610;2023-03-01T00:00:38;19.98;;;11.50;;
58752;SDS011;44525;46.052;13.610;2023-03-01T00:03:04;16.05;;;10.35;;
58752;SDS011;44525;46.052;13.610;2023-03-01T00:05:29;17.95;;;10.43;;
58752;SDS011;44525;46.052;13.610;2023-03-01T00:07:54;16.83;;;10.20;;
58752;SDS011;44525;46.052;13.610;2023-03-01T00:10:20;19.38;;;10.07;;
58752;SDS011;44525;46.052;13.610;2023-03-01T00:12:45;19.92;;;10.90;;
58752;SDS011;44525;46.052;13.610;2023-03-01T00:15:11;22.83;;;11.63;;
58752;SDS011;44525;46.052;13.610;2023-03-01T00:17:36;19.95;;;11.57;;
58752;SDS011;44525;46.052;13.610;2023-03-01T00:20:02;21.85;;;11.85;;
58752;SDS011;44525;46.052;13.610;2023-03-01T00:22:28;19.58;;;11.10;;
58752;SDS011;44525;46.052;13.610;2023-03-01T00:24:54;22.73;;;11.48;;
58752;SDS011;44525;46.052;13.610;2023-03-01T00:27:19;26.58;;;12.63;;
58752;SDS011;44525;46.052;13.610;2023-03-01T00:29:45;19.20;;;10.98;;
58752;SDS011;44525;46.052;13.610;2023-03-01T00:32:10;17.25;;;10.75;;
58752;SDS011;44525;46.052;13.610;2023-03-01T00:34:35;20.50;;;10.82;;
58752;SDS011;44525;46.052;13.610;2023-03-01T00:37:01;19.77;;;11.30;;
58752;SDS011;44525;46.052;13.610;2023-03-01T00:39:30;20.92;;;10.95;;
58752;SDS011;44525;46.052;13.610;2023-03-01T00:41:56;22.00;;;11.20;;
58752;SDS011;44525;46.052;13.610;2023-03-01T00:44:21;16.25;;;9.88;;
58752;SDS011;44525;46.052;13.610;2023-03-01T00:46:47;14.52;;;9.35;;
58752;SDS011;44525;46.052;13.610;2023-03-01T00:49:12;17.13;;;9.30;;
58752;SDS011;44525;46.052;13.610;2023-03-01T00:51:39;16.10;;;10.20;;
58752;SDS011;44525;46.052;13.610;2023-03-01T00:54:07;18.42;;;9.80;;
58752;SDS011;44525;46.052;13.610;2023-03-01T00:56:34;16.10;;;9.38;;
58752;SDS011;44525;46.052;13.610;2023-03-01T00:58:59;15.57;;;9.90;;
58752;SDS011;44525;46.052;13.610;2023-03-01T01:01:26;17.55;;;10.57;;
58752;SDS011;44525;46.052;13.610;2023-03-01T01:03:57;18.20;;;10.00;;
58752;SDS011;44525;46.052;13.610;2023-03-01T01:06:26;16.33;;;9.52;;
58752;SDS011;44525;46.052;13.610;2023-03-01T01:08:54;17.45;;;10.13;;
58752;SDS011;44525;46.052;13.610;2023-03-01T01:11:20;16.42;;;9.48;;
58752;SDS011;44525;46.052;13.610;2023-03-01T01:13:47;15.15;;;9.73;;
58752;SDS011;44525;46.052;13.610;2023-03-01T01:16:13;18.75;;;9.43;;
58752;SDS011;44525;46.052;13.610;2023-03-01T01:18:40;14.73;;;9.35;;
58752;SDS011;44525;46.052;13.610;2023-03-01T01:21:09;15.00;;;8.32;;
58752;SDS011;44525;46.052;13.610;2023-03-01T01:23:37;13.57;;;8.18;;
58752;SDS011;44525;46.052;13.610;2023-03-01T01:26:07;14.70;;;8.82;;
58752;SDS011;44525;46.052;13.610;2023-03-01T01:28:37;14.68;;;9.32;;
58752;SDS011;44525;46.052;13.610;2023-03-01T01:31:03;14.88;;;8.45;;
58752;SDS011;44525;46.052;13.610;2023-03-01T01:33:29;14.55;;;8.55;;
58752;SDS011;44525;46.052;13.610;2023-03-01T01:35:55;14.07;;;8.38;;
58752;SDS011;44525;46.052;13.610;2023-03-01T01:38:20;20.52;;;8.55;;
58752;SDS011;44525;46.052;13.610;2023-03-01T01:40:46;13.48;;;8.23;;
58752;SDS011;44525;46.052;13.610;2023-03-01T01:43:24;14.23;;;8.15;;
58752;SDS011;44525;46.052;13.610;2023-03-01T01:46:04;14.98;;;8.10;;
58752;SDS011;44525;46.052;13.610;2023-03-01T01:48:42;15.77;;;8.50;;
58752;SDS011;44525;46.052;13.610;2023-03-01T01:51:14;15.50;;;8.75;;
58752;SDS011;44525;46.052;13.610;2023-03-01T01:53:51;15.07;;;8.45;;
58752;SDS011;44525;46.052;13.610;2023-03-01T01:56:21;18.92;;;9.15;;
58752;SDS011;44525;46.052;13.610;2023-03-01T01:58:49;15.65;;;8.80;;
58752;SDS011;44525;46.052;13.610;2023-03-01T02:01:15;19.27;;;8.45;;
58752;SDS011;44525;46.052;13.610;2023-03-01T02:03:42;13.88;;;8.25;;
58752;SDS011;44525;46.052;13.610;2023-03-01T02:08:35;14.60;;;8.55;;
58752;SDS011;44525;46.052;13.610;2023-03-01T02:11:03;13.27;;;8.70;;
58752;SDS011;44525;46.052;13.610;2023-03-01T02:13:30;15.63;;;9.02;;
58752;SDS011;44525;46.052;13.610;2023-03-01T02:15:56;17.95;;;9.68;;
58752;SDS011;44525;46.052;13.610;2023-03-01T02:18:22;14.93;;;8.68;;
58752;SDS011;44525;46.052;13.610;2023-03-01T02:23:33;17.45;;;9.30;;
58752;SDS011;44525;46.052;13.610;2023-03-01T02:26:17;16.73;;;9.88;;
58752;SDS011;44525;46.052;13.610;2023-03-01T02:29:04;16.30;;;8.93;;
58752;SDS011;44525;46.052;13.610;2023-03-01T02:31:30;17.67;;;9.27;;
58752;SDS011;44525;46.052;13.610;2023-03-01T02:34:09;13.75;;;8.95;;
58752;SDS011;44525;46.052;13.610;2023-03-01T02:36:50;17.02;;;8.23;;
58752;SDS011;44525;46.052;13.610;2023-03-01T02:39:21;16.20;;;8.88;;
58752;SDS011;44525;46.052;13.610;2023-03-01T02:41:51;13.27;;;8.15;;
58752;SDS011;44525;46.052;13.610;2023-03-01T02:44:18;15.60;;;8.50;;
58752;SDS011;44525;46.052;13.610;2023-03-01T02:46:45;17.75;;;8.57;;
58752;SDS011;44525;46.052;13.610;2023-03-01T02:49:20;16.95;;;8.93;;
58752;SDS011;44525;46.052;13.610;2023-03-01T02:55:06;16.67;;;9.65;;
58752;SDS011;44525;46.052;13.610;2023-03-01T02:57:33;15.68;;;9.05;;
58752;SDS011;44525;46.052;13.610;2023-03-01T03:00:03;17.70;;;9.40;;
58752;SDS011;44525;46.052;13.610;2023-03-01T03:02:32;16.45;;;8.95;;
58752;SDS011;44525;46.052;13.610;2023-03-01T03:05:05;17.63;;;9.23;;
58752;SDS011;44525;46.052;13.610;2023-03-01T03:07:36;15.98;;;8.90;;
58752;SDS011;44525;46.052;13.610;2023-03-01T03:10:03;13.45;;;7.97;;
58752;SDS011;44525;46.052;13.610;2023-03-01T03:12:30;15.32;;;9.20;;
58752;SDS011;44525;46.052;13.610;2023-03-01T03:14:56;15.63;;;8.73;;
58752;SDS011;44525;46.052;13.610;2023-03-01T03:17:22;15.43;;;8.93;;
58752;SDS011;44525;46.052;13.610;2023-03-01T03:19:47;16.40;;;9.25;;
58752;SDS011;44525;46.052;13.610;2023-03-01T03:22:12;16.88;;;8.82;;
58752;SDS011;44525;46.052;13.610;2023-03-01T03:24:38;19.73;;;9.88;;
58752;SDS011;44525;46.052;13.610;2023-03-01T03:27:04;17.77;;;9.95;;
58752;SDS011;44525;46.052;13.610;2023-03-01T03:29:30;17.55;;;9.80;;
58752;SDS011;44525;46.052;13.610;2023-03-01T03:31:56;14.95;;;9.00;;
58752;SDS011;44525;46.052;13.610;2023-03-01T03:34:22;14.40;;;8.45;;
58752;SDS011;44525;46.052;13.610;2023-03-01T03:36:48;17.77;;;9.95;;
58752;SDS011;44525;46.052;13.610;2023-03-01T03:39:21;15.93;;;9.83;;
58752;SDS011;44525;46.052;13.610;2023-03-01T03:41:48;17.40;;;9.73;;
58752;SDS011;44525;46.052;13.610;2023-03-01T03:44:13;18.20;;;9.95;;
58752;SDS011;44525;46.052;13.610;2023-03-01T03:46:38;16.30;;;9.10;;
58752;SDS011;44525;46.052;13.610;2023-03-01T03:49:04;14.18;;;8.82;;
58752;SDS011;44525;46.052;13.610;2023-03-01T03:51:29;15.02;;;9.48;;
58752;SDS011;44525;46.052;13.610;2023-03-01T03:53:54;17.60;;;9.35;;
58752;SDS011;44525;46.052;13.610;2023-03-01T03:56:20;15.30;;;9.35;;
58752;SDS011;44525;46.052;13.610;2023-03-01T03:58:45;16.60;;;8.88;;
58752;SDS011;44525;46.052;13.610;2023-03-01T04:01:10;18.73;;;9.23;;
58752;SDS011;44525;46.052;13.610;2023-03-01T04:03:36;18.92;;;10.18;;
58752;SDS011;44525;46.052;13.610;2023-03-01T04:06:02;14.68;;;9.23;;
58752;SDS011;44525;46.052;13.610;2023-03-01T04:08:28;16.33;;;9.52;;
58752;SDS011;44525;46.052;13.610;2023-03-01T04:10:58;15.25;;;9.50;;
58752;SDS011;44525;46.052;13.610;2023-03-01T04:13:45;15.60;;;9.82;;
58752;SDS011;44525;46.052;13.610;2023-03-01T04:16:11;15.48;;;9.10;;
58752;SDS011;44525;46.052;13.610;2023-03-01T04:18:36;17.25;;;9.40;;
58752;SDS011;44525;46.052;13.610;2023-03-01T04:21:01;14.02;;;9.27;;
58752;SDS011;44525;46.052;13.610;2023-03-01T04:23:27;16.35;;;9.50;;
58752;SDS011;44525;46.052;13.610;2023-03-01T04:25:53;17.95;;;9.68;;
58752;SDS011;44525;46.052;13.610;2023-03-01T04:30:50;15.13;;;9.05;;
58752;SDS011;44525;46.052;13.610;2023-03-01T04:33:19;16.77;;;9.02;;
58752;SDS011;44525;46.052;13.610;2023-03-01T04:35:45;20.33;;;10.52;;
58752;SDS011;44525;46.052;13.610;2023-03-01T04:38:14;15.52;;;9.20;;
58752;SDS011;44525;46.052;13.610;2023-03-01T04:40:40;14.00;;;8.95;;
58752;SDS011;44525;46.052;13.610;2023-03-01T04:43:08;14.55;;;9.57;;
58752;SDS011;44525;46.052;13.610;2023-03-01T04:45:34;14.98;;;9.25;;
58752;SDS011;44525;46.052;13.610;2023-03-01T04:48:00;17.85;;;9.07;;
58752;SDS011;44525;46.052;13.610;2023-03-01T04:50:25;13.90;;;8.80;;
58752;SDS011;44525;46.052;13.610;2023-03-01T04:52:51;15.70;;;9.70;;
58752;SDS011;44525;46.052;13.610;2023-03-01T04:55:17;18.58;;;10.10;;
58752;SDS011;44525;46.052;13.610;2023-03-01T04:57:42;16.13;;;10.13;;
58752;SDS011;44525;46.052;13.610;2023-03-01T05:00:09;18.50;;;10.23;;
58752;SDS011;44525;46.052;13.610;2023-03-01T05:05:13;15.27;;;10.32;;
58752;SDS011;44525;46.052;13.610;2023-03-01T05:07:39;15.70;;;10.55;;
58752;SDS011;44525;46.052;13.610;2023-03-01T05:10:04;19.27;;;9.13;;
58752;SDS011;44525;46.052;13.610;2023-03-01T05:12:29;18.95;;;10.20;;
58752;SDS011;44525;46.052;13.610;2023-03-01T05:14:55;17.10;;;10.20;;
58752;SDS011;44525;46.052;13.610;2023-03-01T05:17:20;15.02;;;9.90;;
58752;SDS011;44525;46.052;13.610;2023-03-01T05:19:45;18.33;;;9.75;;
58752;SDS011;44525;46.052;13.610;2023-03-01T05:22:11;15.30;;;9.98;;
58752;SDS011;44525;46.052;13.610;2023-03-01T05:24:36;19.20;;;9.73;;
58752;SDS011;44525;46.052;13.610;2023-03-01T05:27:03;20.73;;;10.38;;
58752;SDS011;44525;46.052;13.610;2023-03-01T05:29:30;17.00;;;10.00;;
58752;SDS011;44525;46.052;13.610;2023-03-01T05:32:00;20.23;;;11.05;;
58752;SDS011;44525;46.052;13.610;2023-03-01T05:34:28;20.83;;;10.77;;
58752;SDS011;44525;46.052;13.610;2023-03-01T05:36:58;17.55;;;10.57;;
58752;SDS011;44525;46.052;13.610;2023-03-01T05:39:24;18.67;;;10.45;;
58752;SDS011;44525;46.052;13.610;2023-03-01T05:41:58;17.48;;;10.13;;
58752;SDS011;44525;46.052;13.610;2023-03-01T05:44:25;17.15;;;10.20;;
58752;SDS011;44525;46.052;13.610;2023-03-01T05:46:52;16.50;;;9.93;;
58752;SDS011;44525;46.052;13.610;2023-03-01T05:49:17;17.73;;;10.65;;
58752;SDS011;44525;46.052;13.610;2023-03-01T05:51:47;20.65;;;9.77;;
58752;SDS011;44525;46.052;13.610;2023-03-01T05:54:13;20.48;;;10.90;;
58752;SDS011;44525;46.052;13.610;2023-03-01T05:56:39;17.17;;;9.95;;
58752;SDS011;44525;46.052;13.610;2023-03-01T05:59:04;16.20;;;10.82;;
58752;SDS011;44525;46.052;13.610;2023-03-01T06:01:30;17.98;;;10.18;;
58752;SDS011;44525;46.052;13.610;2023-03-01T06:03:56;19.88;;;10.48;;
58752;SDS011;44525;46.052;13.610;2023-03-01T06:06:22;19.45;;;11.23;;
58752;SDS011;44525;46.052;13.610;2023-03-01T06:08:48;17.65;;;10.63;;
58752;SDS011;44525;46.052;13.610;2023-03-01T06:11:14;17.55;;;10.10;;
58752;SDS011;44525;46.052;13.610;2023-03-01T06:13:41;16.33;;;11.15;;
58752;SDS011;44525;46.052;13.610;2023-03-01T06:16:07;17.95;;;9.82;;
58752;SDS011;44525;46.052;13.610;2023-03-01T06:18:33;23.52;;;11.48;;
58752;SDS011;44525;46.052;13.610;2023-03-01T06:20:58;17.95;;;10.70;;
58752;SDS011;44525;46.052;13.610;2023-03-01T06:23:24;17.00;;;10.80;;
58752;SDS011;44525;46.052;13.610;2023-03-01T06:25:49;20.60;;;11.13;;
58752;SDS011;44525;46.052;13.610;2023-03-01T06:28:15;20.42;;;11.32;;
58752;SDS011;44525;46.052;13.610;2023-03-01T06:30:40;18.65;;;11.10;;
58752;SDS011;44525;46.052;13.610;2023-03-01T06:33:05;17.42;;;10.15;;
58752;SDS011;44525;46.052;13.610;2023-03-01T06:35:31;18.25;;;10.18;;
58752;SDS011;44525;46.052;13.610;2023-03-01T06:37:57;19.48;;;11.13;;
58752;SDS011;44525;46.052;13.610;2023-03-01T06:40:24;18.10;;;10.35;;
58752;SDS011;44525;46.052;13.610;2023-03-01T06:42:50;18.08;;;11.13;;
58752;SDS011;44525;46.052;13.610;2023-03-01T06:45:17;16.35;;;10.40;;
58752;SDS011;44525;46.052;13.610;2023-03-01T06:47:43;18.65;;;10.95;;
58752;SDS011;44525;46.052;13.610;2023-03-01T06:50:09;16.45;;;10.38;;
58752;SDS011;44525;46.052;13.610;2023-03-01T06:52:35;21.00;;;10.75;;
58752;SDS011;44525;46.052;13.610;2023-03-01T06:55:01;17.48;;;10.50;;
58752;SDS011;44525;46.052;13.610;2023-03-01T06:57:26;18.15;;;10.65;;
58752;SDS011;44525;46.052;13.610;2023-03-01T06:59:52;19.02;;;10.45;;
58752;SDS011;44525;46.052;13.610;2023-03-01T07:02:18;29.50;;;15.57;;
58752;SDS011;44525;46.052;13.610;2023-03-01T07:04:43;21.55;;;10.88;;
58752;SDS011;44525;46.052;13.610;2023-03-01T07:07:09;19.90;;;11.43;;
58752;SDS011;44525;46.052;13.610;2023-03-01T07:09:34;22.15;;;11.80;;
58752;SDS011;44525;46.052;13.610;2023-03-01T07:12:00;17.75;;;10.77;;
58752;SDS011;44525;46.052;13.610;2023-03-01T07:14:25;16.85;;;10.52;;
58752;SDS011;44525;46.052;13.610;2023-03-01T07:16:54;19.98;;;11.38;;
58752;SDS011;44525;46.052;13.610;2023-03-01T07:19:20;19.40;;;11.80;;
58752;SDS011;44525;46.052;13.610;2023-03-01T07:21:46;20.60;;;11.30;;
58752;SDS011;44525;46.052;13.610;2023-03-01T07:24:11;20.83;;;11.98;;
58752;SDS011;44525;46.052;13.610;2023-03-01T07:26:37;23.33;;;11.75;;
58752;SDS011;44525;46.052;13.610;2023-03-01T07:29:03;23.98;;;12.02;;
58752;SDS011;44525;46.052;13.610;2023-03-01T07:31:30;18.75;;;11.75;;
58752;SDS011;44525;46.052;13.610;2023-03-01T07:33:55;21.52;;;12.10;;
58752;SDS011;44525;46.052;13.610;2023-03-01T07:36:21;19.80;;;10.75;;
58752;SDS011;44525;46.052;13.610;2023-03-01T07:38:47;19.50;;;11.75;;
58752;SDS011;44525;46.052;13.610;2023-03-01T07:41:12;22.08;;;12.30;;
58752;SDS011;44525;46.052;13.610;2023-03-01T07:43:38;18.60;;;11.57;;
58752;SDS011;44525;46.052;13.610;2023-03-01T07:46:03;22.83;;;11.93;;
58752;SDS011;44525;46.052;13.610;2023-03-01T07:48:29;17.85;;;10.82;;
58752;SDS011;44525;46.052;13.610;2023-03-01T07:50:59;21.92;;;11.75;;
58752;SDS011;44525;46.052;13.610;2023-03-01T07:53:25;20.90;;;11.50;;
58752;SDS011;44525;46.052;13.610;2023-03-01T07:55:59;17.20;;;10.95;;
58752;SDS011;44525;46.052;13.610;2023-03-01T07:58:28;18.70;;;10.75;;
58752;SDS011;44525;46.052;13.610;2023-03-01T08:00:53;16.95;;;10.20;;
58752;SDS011;44525;46.052;13.610;2023-03-01T08:03:18;19.85;;;10.07;;
58752;SDS011;44525;46.052;13.610;2023-03-01T08:05:44;19.55;;;11.23;;
58752;SDS011;44525;46.052;13.610;2023-03-01T08:08:09;19.40;;;10.85;;
58752;SDS011;44525;46.052;13.610;2023-03-01T08:10:35;18.48;;;10.32;;
58752;SDS011;44525;46.052;13.610;2023-03-01T08:13:01;18.75;;;10.32;;
58752;SDS011;44525;46.052;13.610;2023-03-01T08:15:27;20.30;;;10.77;;
58752;SDS011;44525;46.052;13.610;2023-03-01T08:17:52;15.05;;;9.40;;
58752;SDS011;44525;46.052;13.610;2023-03-01T08:20:17;18.08;;;9.52;;
58752;SDS011;44525;46.052;13.610;2023-03-01T08:22:43;17.17;;;9.73;;
58752;SDS011;44525;46.052;13.610;2023-03-01T08:25:08;18.40;;;10.60;;
58752;SDS011;44525;46.052;13.610;2023-03-01T08:27:34;19.77;;;10.65;;
58752;SDS011;44525;46.052;13.610;2023-03-01T08:29:59;17.50;;;9.45;;
58752;SDS011;44525;46.052;13.610;2023-03-01T08:32:24;14.82;;;9.10;;
58752;SDS011;44525;46.052;13.610;2023-03-01T08:34:50;16.98;;;8.88;;
58752;SDS011;44525;46.052;13.610;2023-03-01T08:37:15;15.30;;;8.98;;
58752;SDS011;44525;46.052;13.610;2023-03-01T08:39:41;16.67;;;9.38;;
58752;SDS011;44525;46.052;13.610;2023-03-01T08:42:06;19.73;;;8.30;;
58752;SDS011;44525;46.052;13.610;2023-03-01T08:44:31;14.70;;;7.70;;
58752;SDS011;44525;46.052;13.610;2023-03-01T08:46:57;15.77;;;8.52;;
58752;SDS011;44525;46.052;13.610;2023-03-01T08:49:23;16.23;;;8.00;;
58752;SDS011;44525;46.052;13.610;2023-03-01T08:51:48;15.00;;;8.20;;
58752;SDS011;44525;46.052;13.610;2023-03-01T08:54:18;13.60;;;8.63;;
58752;SDS011;44525;46.052;13.610;2023-03-01T08:56:45;14.57;;;8.25;;
58752;SDS011;44525;46.052;13.610;2023-03-01T08:59:11;24.42;;;9.00;;
58752;SDS011;44525;46.052;13.610;2023-03-01T09:01:38;13.10;;;7.75;;
58752;SDS011;44525;46.052;13.610;2023-03-01T09:04:05;15.00;;;8.73;;
58752;SDS011;44525;46.052;13.610;2023-03-01T09:06:31;12.60;;;7.28;;
58752;SDS011;44525;46.052;13.610;2023-03-01T09:08:58;17.83;;;8.50;;
58752;SDS011;44525;46.052;13.610;2023-03-01T09:11:24;14.77;;;7.10;;
58752;SDS011;44525;46.052;13.610;2023-03-01T09:13:49;14.23;;;7.03;;
58752;SDS011;44525;46.052;13.610;2023-03-01T09:16:16;13.35;;;7.30;;
58752;SDS011;44525;46.052;13.610;2023-03-01T09:18:43;12.68;;;7.50;;
58752;SDS011;44525;46.052;13.610;2023-03-01T09:21:10;15.27;;;7.55;;
58752;SDS011;44525;46.052;13.610;2023-03-01T09:23:39;14.40;;;7.95;;
58752;SDS011;44525;46.052;13.610;2023-03-01T09:26:06;12.15;;;7.13;;
58752;SDS011;44525;46.052;13.610;2023-03-01T09:28:37;13.55;;;7.20;;
58752;SDS011;44525;46.052;13.610;2023-03-01T09:31:05;13.48;;;6.95;;
58752;SDS011;44525;46.052;13.610;2023-03-01T09:33:31;15.68;;;7.30;;
58752;SDS011;44525;46.052;13.610;2023-03-01T09:36:01;11.05;;;6.60;;
58752;SDS011;44525;46.052;13.610;2023-03-01T09:38:28;11.38;;;6.60;;
58752;SDS011;44525;46.052;13.610;2023-03-01T09:40:54;18.17;;;7.45;;
58752;SDS011;44525;46.052;13.610;2023-03-01T09:46:04;10.95;;;7.25;;
58752;SDS011;44525;46.052;13.610;2023-03-01T09:48:37;14.05;;;7.75;;
58752;SDS011;44525;46.052;13.610;2023-03-01T09:51:08;12.35;;;6.20;;
58752;SDS011;44525;46.052;13.610;2023-03-01T09:53:39;13.27;;;6.82;;
58752;SDS011;44525;46.052;13.610;2023-03-01T09:56:05;14.40;;;7.43;;
58752;SDS011;44525;46.052;13.610;2023-03-01T10:04:03;10.93;;;6.63;;
58752;SDS011;44525;46.052;13.610;2023-03-01T10:06:37;10.02;;;6.40;;
58752;SDS011;44525;46.052;13.610;2023-03-01T10:09:12;13.18;;;6.50;;
58752;SDS011;44525;46.052;13.610;2023-03-01T10:11:45;14.75;;;6.50;;
58752;SDS011;44525;46.052;13.610;2023-03-01T10:15:02;13.93;;;6.78;;
58752;SDS011;44525;46.052;13.610;2023-03-01T10:17:12;11.77;;;6.40;;
58752;SDS011;44525;46.052;13.610;2023-03-01T10:19:45;14.43;;;6.43;;
58752;SDS011;44525;46.052;13.610;2023-03-01T10:22:19;11.43;;;6.35;;
58752;SDS011;44525;46.052;13.610;2023-03-01T10:24:50;13.07;;;7.53;;
58752;SDS011;44525;46.052;13.610;2023-03-01T10:27:18;11.02;;;6.60;;
58752;SDS011;44525;46.052;13.610;2023-03-01T10:29:57;14.93;;;8.30;;
58752;SDS011;44525;46.052;13.610;2023-03-01T10:32:38;18.30;;;8.70;;
58752;SDS011;44525;46.052;13.610;2023-03-01T10:35:23;13.55;;;7.38;;
58752;SDS011;44525;46.052;13.610;2023-03-01T10:38:09;21.30;;;8.88;;
58752;SDS011;44525;46.052;13.610;2023-03-01T10:41:00;13.65;;;7.10;;
58752;SDS011;44525;46.052;13.610;2023-03-01T10:43:53;13.23;;;8.43;;
58752;SDS011;44525;46.052;13.610;2023-03-01T10:51:40;14.77;;;8.32;;
58752;SDS011;44525;46.052;13.610;2023-03-01T10:56:56;15.95;;;7.55;;
58752;SDS011;44525;46.052;13.610;2023-03-01T10:59:28;16.08;;;7.78;;
58752;SDS011;44525;46.052;13.610;2023-03-01T11:02:28;14.63;;;8.45;;
58752;SDS011;44525;46.052;13.610;2023-03-01T11:07:27;16.45;;;9.32;;
58752;SDS011;44525;46.052;13.610;2023-03-01T11:09:53;21.10;;;10.25;;
58752;SDS011;44525;46.052;13.610;2023-03-01T11:12:20;15.95;;;9.95;;
58752;SDS011;44525;46.052;13.610;2023-03-01T11:14:55;15.52;;;6.75;;
58752;SDS011;44525;46.052;13.610;2023-03-01T11:20:00;12.88;;;6.63;;
58752;SDS011;44525;46.052;13.610;2023-03-01T11:22:29;13.45;;;6.28;;
58752;SDS011;44525;46.052;13.610;2023-03-01T11:24:56;13.38;;;6.68;;
58752;SDS011;44525;46.052;13.610;2023-03-01T11:27:26;11.73;;;6.70;;
58752;SDS011;44525;46.052;13.610;2023-03-01T11:30:06;11.82;;;6.53;;
58752;SDS011;44525;46.052;13.610;2023-03-01T11:35:14;14.70;;;6.97;;
58752;SDS011;44525;46.052;13.610;2023-03-01T11:40:20;14.43;;;7.30;;
58752;SDS011;44525;46.052;13.610;2023-03-01T11:45:43;11.52;;;7.30;;
58752;SDS011;44525;46.052;13.610;2023-03-01T11:51:07;11.85;;;6.13;;
58752;SDS011;44525;46.052;13.610;2023-03-01T11:56:29;20.27;;;6.43;;
58752;SDS011;44525;46.052;13.610;2023-03-01T12:02:18;11.02;;;6.72;;
58752;SDS011;44525;46.052;13.610;2023-03-01T12:05:20;8.50;;;5.30;;
58752;SDS011;44525;46.052;13.610;2023-03-01T12:10:46;11.63;;;5.75;;
58752;SDS011;44525;46.052;13.610;2023-03-01T12:16:07;10.10;;;6.05;;
58752;SDS011;44525;46.052;13.610;2023-03-01T12:18:45;8.82;;;5.18;;
58752;SDS011;44525;46.052;13.610;2023-03-01T12:30:00;9.75;;;5.70;;
58752;SDS011;44525;46.052;13.610;2023-03-01T12:38:16;10.45;;;5.78;;
58752;SDS011;44525;46.052;13.610;2023-03-01T12:47:00;8.13;;;5.07;;
58752;SDS011;44525;46.052;13.610;2023-03-01T12:54:49;9.20;;;5.32;;
58752;SDS011;44525;46.052;13.610;2023-03-01T12:57:20;12.45;;;7.00;;
58752;SDS011;44525;46.052;13.610;2023-03-01T13:02:34;13.95;;;7.70;;
58752;SDS011;44525;46.052;13.610;2023-03-01T13:05:19;13.18;;;6.50;;
58752;SDS011;44525;46.052;13.610;2023-03-01T13:08:31;9.40;;;5.60;;
58752;SDS011;44525;46.052;13.610;2023-03-01T13:11:00;15.85;;;7.95;;
58752;SDS011;44525;46.052;13.610;2023-03-01T13:13:28;11.07;;;6.80;;
58752;SDS011;44525;46.052;13.610;2023-03-01T13:15:55;10.80;;;5.97;;
58752;SDS011;44525;46.052;13.610;2023-03-01T13:20:55;11.77;;;5.82;;
58752;SDS011;44525;46.052;13.610;2023-03-01T13:23:24;10.35;;;5.78;;
58752;SDS011;44525;46.052;13.610;2023-03-01T13:33:46;11.50;;;6.72;;
58752;SDS011;44525;46.052;13.610;2023-03-01T13:36:45;9.63;;;6.25;;
58752;SDS011;44525;46.052;13.610;2023-03-01T13:46:51;21.63;;;9.85;;
58752;SDS011;44525;46.052;13.610;2023-03-01T13:49:20;7.82;;;5.32;;
58752;SDS011;44525;46.052;13.610;2023-03-01T13:51:48;8.02;;;5.18;;
58752;SDS011;44525;46.052;13.610;2023-03-01T13:54:16;17.10;;;8.63;;
58752;SDS011;44525;46.052;13.610;2023-03-01T13:56:50;12.65;;;7.38;;
58752;SDS011;44525;46.052;13.610;2023-03-01T13:59:19;17.67;;;8.80;;
58752;SDS011;44525;46.052;13.610;2023-03-01T14:01:53;11.43;;;5.63;;
58752;SDS011;44525;46.052;13.610;2023-03-01T14:04:22;17.13;;;7.57;;
58752;SDS011;44525;46.052;13.610;2023-03-01T14:07:12;12.75;;;7.55;;
58752;SDS011;44525;46.052;13.610;2023-03-01T14:09:41;12.32;;;6.88;;
58752;SDS011;44525;46.052;13.610;2023-03-01T14:15:02;11.25;;;5.88;;
58752;SDS011;44525;46.052;13.610;2023-03-01T14:20:20;9.18;;;5.38;;
58752;SDS011;44525;46.052;13.610;2023-03-01T14:22:49;11.65;;;6.35;;
58752;SDS011;44525;46.052;13.610;2023-03-01T14:25:28;9.30;;;5.78;;
58752;SDS011;44525;46.052;13.610;2023-03-01T14:27:57;8.25;;;5.32;;
58752;SDS011;44525;46.052;13.610;2023-03-01T14:30:50;9.30;;;5.35;;
58752;SDS011;44525;46.052;13.610;2023-03-01T14:35:56;9.15;;;5.25;;
58752;SDS011;44525;46.052;13.610;2023-03-01T14:38:23;11.30;;;5.57;;
58752;SDS011;44525;46.052;13.610;2023-03-01T14:40:54;11.85;;;6.40;;
58752;SDS011;44525;46.052;13.610;2023-03-01T14:43:23;9.82;;;5.93;;
58752;SDS011;44525;46.052;13.610;2023-03-01T14:45:51;13.43;;;6.68;;
58752;SDS011;44525;46.052;13.610;2023-03-01T14:48:16;20.40;;;9.73;;
58752;SDS011;44525;46.052;13.610;2023-03-01T14:50:44;10.55;;;6.78;;
58752;SDS011;44525;46.052;13.610;2023-03-01T14:53:16;8.38;;;5.28;;
58752;SDS011;44525;46.052;13.610;2023-03-01T14:55:45;9.75;;;6.00;;
58752;SDS011;44525;46.052;13.610;2023-03-01T14:58:14;7.07;;;4.45;;
58752;SDS011;44525;46.052;13.610;2023-03-01T15:00:48;7.55;;;4.68;;
58752;SDS011;44525;46.052;13.610;2023-03-01T15:03:24;8.82;;;5.07;;
58752;SDS011;44525;46.052;13.610;2023-03-01T15:05:59;8.68;;;4.70;;
58752;SDS011;44525;46.052;13.610;2023-03-01T15:08:28;10.02;;;5.90;;
58752;SDS011;44525;46.052;13.610;2023-03-01T15:13:25;7.05;;;4.72;;
58752;SDS011;44525;46.052;13.610;2023-03-01T15:16:01;9.57;;;5.95;;
58752;SDS011;44525;46.052;13.610;2023-03-01T15:18:30;10.57;;;6.38;;
58752;SDS011;44525;46.052;13.610;2023-03-01T15:20:55;12.57;;;4.47;;
58752;SDS011;44525;46.052;13.610;2023-03-01T15:23:34;9.10;;;5.53;;
58752;SDS011;44525;46.052;13.610;2023-03-01T15:26:03;7.80;;;4.97;;
58752;SDS011;44525;46.052;13.610;2023-03-01T15:28:37;7.47;;;4.68;;
58752;SDS011;44525;46.052;13.610;2023-03-01T15:31:18;14.38;;;8.32;;
58752;SDS011;44525;46.052;13.610;2023-03-01T15:33:46;9.50;;;5.00;;
58752;SDS011;44525;46.052;13.610;2023-03-01T15:36:31;8.48;;;4.55;;
58752;SDS011;44525;46.052;13.610;2023-03-01T15:39:05;8.55;;;4.57;;
58752;SDS011;44525;46.052;13.610;2023-03-01T15:41:48;7.50;;;4.18;;
58752;SDS011;44525;46.052;13.610;2023-03-01T15:44:15;7.45;;;4.90;;
58752;SDS011;44525;46.052;13.610;2023-03-01T15:46:52;8.85;;;5.05;;
58752;SDS011;44525;46.052;13.610;2023-03-01T15:49:31;9.93;;;5.80;;
58752;SDS011;44525;46.052;13.610;2023-03-01T15:52:01;9.82;;;6.40;;
58752;SDS011;44525;46.052;13.610;2023-03-01T15:54:27;9.77;;;5.13;;
58752;SDS011;44525;46.052;13.610;2023-03-01T15:56:54;11.70;;;6.47;;
58752;SDS011;44525;46.052;13.610;2023-03-01T15:59:20;9.00;;;5.35;;
58752;SDS011;44525;46.052;13.610;2023-03-01T16:01:47;11.00;;;5.55;;
58752;SDS011;44525;46.052;13.610;2023-03-01T16:04:14;10.18;;;5.22;;
58752;SDS011;44525;46.052;13.610;2023-03-01T16:06:51;10.68;;;5.68;;
58752;SDS011;44525;46.052;13.610;2023-03-01T16:09:21;10.95;;;6.03;;
58752;SDS011;44525;46.052;13.610;2023-03-01T16:11:48;11.32;;;5.57;;
58752;SDS011;44525;46.052;13.610;2023-03-01T16:14:13;12.25;;;6.15;;
58752;SDS011;44525;46.052;13.610;2023-03-01T16:16:39;10.55;;;5.82;;
58752;SDS011;44525;46.052;13.610;2023-03-01T16:19:05;11.45;;;6.00;;
58752;SDS011;44525;46.052;13.610;2023-03-01T16:21:30;11.00;;;6.38;;
58752;SDS011;44525;46.052;13.610;2023-03-01T16:23:56;9.27;;;5.43;;